createdAt,value
2022-11-23T00:01:19.775Z,99904.59
2022-11-23T00:03:21.218Z,99908.97
2022-11-23T00:05:23.105Z,99906.31
2022-11-23T00:07:24.613Z,99907.22
2022-11-23T00:09:26.074Z,99906.31
2022-11-23T00:11:28.009Z,99905.44
2022-11-23T00:13:29.553Z,99907.19
2022-11-23T00:15:32.414Z,99908.94
2022-11-23T00:17:34.217Z,99909.81
2022-11-23T00:19:35.642Z,99905.44
2022-11-23T00:21:37.066Z,99903.72
2022-11-23T00:23:38.696Z,99910.66
2022-11-23T00:25:40.130Z,99900.19
2022-11-23T00:27:41.557Z,99908.03
2022-11-23T00:29:43.035Z,99903.66
2022-11-23T00:31:44.459Z,99901.91
2022-11-23T00:33:50.623Z,99902.75
2022-11-23T00:36:07.233Z,99901.03
2022-11-23T00:38:08.681Z,99900.16
2022-11-23T00:40:10.435Z,99902.75
2022-11-23T00:42:12.084Z,99903.59
2022-11-23T00:44:13.518Z,99897.50
2022-11-23T00:46:17.687Z,99901.03
2022-11-23T00:48:19.162Z,99899.22
2022-11-23T00:50:20.650Z,99899.22
2022-11-23T00:52:22.089Z,99895.75
2022-11-23T00:54:23.543Z,99898.34
2022-11-23T00:56:25.992Z,99898.31
2022-11-23T00:58:28.391Z,99900.97
2022-11-23T01:00:29.829Z,99898.31
2022-11-23T01:02:31.274Z,99903.56
2022-11-23T01:04:32.739Z,99911.38
2022-11-23T01:06:37.233Z,99901.78
2022-11-23T01:08:39.405Z,99905.25
2022-11-23T01:10:40.886Z,99907.88
2022-11-23T01:12:42.320Z,99904.34
2022-11-23T01:14:43.770Z,99906.09
2022-11-23T01:16:45.365Z,99910.44
2022-11-23T01:18:47.160Z,99912.16
2022-11-23T01:20:48.695Z,99909.53
2022-11-23T01:22:52.646Z,99912.97
2022-11-23T01:24:54.099Z,99908.59
2022-11-23T01:26:56.098Z,99904.22
2022-11-23T01:28:57.633Z,99908.56
2022-11-23T01:31:12.080Z,99905.94
2022-11-23T01:33:13.647Z,99898.06
2022-11-23T01:35:15.208Z,99901.53
2022-11-23T01:37:16.645Z,99898.03
2022-11-23T01:39:18.138Z,99900.63
2022-11-23T01:41:25.384Z,99905.00
2022-11-23T01:43:26.846Z,99910.22
2022-11-23T01:45:34.173Z,99913.66
2022-11-23T01:47:35.977Z,99914.59
2022-11-23T01:49:49.797Z,99909.38
2022-11-23T01:51:54.509Z,99905.00
2022-11-23T01:54:02.088Z,99916.31
2022-11-23T01:56:06.302Z,99918.91
2022-11-23T01:58:10.120Z,99913.66
2022-11-23T02:00:13.515Z,99913.63
2022-11-23T02:02:17.033Z,99907.50
2022-11-23T02:04:24.039Z,99899.63
2022-11-23T02:06:25.518Z,99904.84
2022-11-23T02:08:28.501Z,99909.19
2022-11-23T02:10:31.719Z,99907.41
2022-11-23T02:12:33.141Z,99902.13
2022-11-23T02:14:34.568Z,99899.47
2022-11-23T02:16:37.562Z,99905.56
2022-11-23T02:18:43.215Z,99903.81
2022-11-23T02:20:46.088Z,99897.63
2022-11-23T02:22:56.468Z,99904.59
2022-11-23T02:25:01.026Z,99901.09
2022-11-23T02:27:03.808Z,99888.00
2022-11-23T02:29:10.906Z,99901.06
2022-11-23T02:31:12.556Z,99888.00
2022-11-23T02:33:14.009Z,99887.13
2022-11-23T02:35:15.476Z,99888.84
2022-11-23T02:37:18.691Z,99893.19
2022-11-23T02:39:43.238Z,99897.53
2022-11-23T02:41:50.787Z,99898.41
2022-11-23T02:43:56.756Z,99892.28
2022-11-23T02:46:01.288Z,99894.03
2022-11-23T02:48:03.541Z,99889.63
2022-11-23T02:50:05.306Z,99898.38
2022-11-23T02:52:07.287Z,99889.69
2022-11-23T02:54:08.784Z,99896.59
2022-11-23T02:56:10.225Z,99897.47
2022-11-23T02:58:12.207Z,99896.56
2022-11-23T03:00:14.414Z,99897.44
2022-11-23T03:02:15.955Z,99897.44
2022-11-23T03:04:18.494Z,99898.28
2022-11-23T03:06:22.226Z,99893.03
2022-11-23T03:08:23.691Z,99903.47
2022-11-23T03:10:25.201Z,99898.22
2022-11-23T03:12:26.805Z,99898.22
2022-11-23T03:14:28.329Z,99894.66
2022-11-23T03:16:29.827Z,99900.75
2022-11-23T03:18:31.290Z,99903.34
2022-11-23T03:20:32.763Z,99902.44
2022-11-23T03:22:34.307Z,99900.66
2022-11-23T03:24:35.759Z,99906.75
2022-11-23T03:26:37.305Z,99906.75
2022-11-23T03:28:38.782Z,99911.09
2022-11-23T03:30:40.247Z,99907.56
2022-11-23T03:32:41.743Z,99906.66
2022-11-23T03:34:43.170Z,99904.91
2022-11-23T03:36:44.808Z,99908.31
2022-11-23T03:38:46.257Z,99911.78
2022-11-23T03:40:47.698Z,99906.56
2022-11-23T03:42:49.190Z,99903.94
2022-11-23T03:44:50.632Z,99908.28
2022-11-23T03:46:52.093Z,99902.13
2022-11-23T03:48:53.546Z,99908.25
2022-11-23T03:50:55.056Z,99907.34
2022-11-23T03:52:57.072Z,99912.50
2022-11-23T03:54:58.534Z,99922.91
2022-11-23T03:56:59.966Z,99925.50
2022-11-23T03:59:01.470Z,99922.84
2022-11-23T04:01:03.117Z,99918.41
2022-11-23T04:03:04.578Z,99915.75
2022-11-23T04:05:06.537Z,99915.75
2022-11-23T04:07:08.018Z,99917.47
2022-11-23T04:09:09.591Z,99913.06
2022-11-23T04:11:11.208Z,99915.59
2022-11-23T04:13:12.788Z,99912.94
2022-11-23T04:15:14.246Z,99908.53
2022-11-23T04:17:15.755Z,99913.72
2022-11-23T04:19:17.196Z,99909.31
2022-11-23T04:21:18.652Z,99910.97
2022-11-23T04:23:20.163Z,99907.41
2022-11-23T04:25:21.675Z,99916.16
2022-11-23T04:27:23.136Z,99914.31
2022-11-23T04:29:24.576Z,99914.28
2022-11-23T04:31:26.028Z,99911.59
2022-11-23T04:33:27.513Z,99913.31
2022-11-23T04:35:28.978Z,99911.53
2022-11-23T04:37:30.459Z,99918.50
2022-11-23T04:39:32.270Z,99921.94
2022-11-23T04:41:34.066Z,99914.94
2022-11-23T04:43:35.539Z,99911.41
2022-11-23T04:45:40.710Z,99914.84
2022-11-23T04:47:42.154Z,99925.38
2022-11-23T04:49:43.652Z,99916.59
2022-11-23T04:51:45.107Z,99915.72
2022-11-23T04:53:46.549Z,99913.94
2022-11-23T04:55:47.982Z,99920.06
2022-11-23T04:57:49.420Z,99927.91
2022-11-23T04:59:50.841Z,99921.81
2022-11-23T05:01:52.319Z,99928.72
2022-11-23T05:03:53.782Z,99913.88
2022-11-23T05:05:58.489Z,99917.31
2022-11-23T05:08:00.243Z,99911.16
2022-11-23T05:10:01.922Z,99926.03
2022-11-23T05:12:03.648Z,99913.78
2022-11-23T05:14:05.222Z,99917.25
2022-11-23T05:16:07.022Z,99912.84
2022-11-23T05:18:08.518Z,99921.56
2022-11-23T05:20:11.538Z,99923.28
2022-11-23T05:22:13.026Z,99919.72
2022-11-23T05:24:14.465Z,99924.00
2022-11-23T05:26:15.957Z,99919.56
2022-11-23T05:30:41.567Z,99926.34
2022-11-23T05:32:43.111Z,99921.06
2022-11-23T05:34:44.569Z,99925.34
2022-11-23T05:36:46.030Z,99925.31
2022-11-23T05:38:47.483Z,99926.31
2022-11-23T05:40:48.902Z,99933.28
2022-11-23T05:42:56.885Z,99934.00
2022-11-23T05:44:58.535Z,99934.91
2022-11-23T05:47:00.054Z,99934.91
2022-11-23T05:49:01.573Z,99940.97
2022-11-23T05:51:05.454Z,99937.44
2022-11-23T05:53:07.324Z,99940.03
2022-11-23T05:55:08.965Z,99952.25
2022-11-23T05:57:11.007Z,99953.03
2022-11-23T05:59:12.454Z,99949.41
2022-11-23T06:01:13.997Z,99951.09
2022-11-23T06:03:15.447Z,99944.97
2022-11-23T06:05:16.963Z,99947.50
2022-11-23T06:07:18.543Z,99953.63
2022-11-23T06:09:20.731Z,99950.94
2022-11-23T06:11:22.184Z,99957.97
2022-11-23T06:13:23.692Z,99957.06
2022-11-23T06:15:25.132Z,99951.81
2022-11-23T06:17:26.632Z,99956.16
2022-11-23T06:19:30.600Z,99957.88
2022-11-23T06:21:32.367Z,99953.44
2022-11-23T06:23:33.857Z,99964.81
2022-11-23T06:25:35.609Z,99959.50
2022-11-23T06:27:37.030Z,99962.09
2022-11-23T06:29:38.491Z,99965.56
2022-11-23T06:31:40.081Z,99963.75
2022-11-23T06:33:41.646Z,99968.97
2022-11-23T06:35:43.174Z,99968.06
2022-11-23T06:37:44.755Z,99969.84
2022-11-23T06:39:46.227Z,99963.72
2022-11-23T06:41:47.674Z,99970.72
2022-11-23T06:43:49.143Z,99971.59
2022-11-23T06:45:50.584Z,99974.25
2022-11-23T06:47:54.722Z,99973.41
2022-11-23T06:49:56.149Z,99973.41
2022-11-23T06:51:57.583Z,99968.16
2022-11-23T06:53:59.046Z,99972.50
2022-11-23T06:56:00.901Z,99975.16
2022-11-23T06:58:02.349Z,99971.69
2022-11-23T07:00:05.183Z,99970.81
2022-11-23T07:02:06.840Z,99969.91
2022-11-23T07:04:09.051Z,99972.53
2022-11-23T07:06:10.960Z,99981.31
2022-11-23T07:08:12.391Z,99983.09
2022-11-23T07:10:13.909Z,99984.84
2022-11-23T07:12:15.375Z,99983.13
2022-11-23T07:14:16.811Z,99996.28
2022-11-23T07:16:18.238Z,99992.00
2022-11-23T07:18:19.688Z,99992.94
2022-11-23T07:20:21.125Z,99994.75
2022-11-23T07:22:22.634Z,99996.53
2022-11-23T07:24:24.106Z,99997.41
2022-11-23T07:26:25.537Z,100006.19
2022-11-23T07:28:26.968Z,100001.84
2022-11-23T07:30:30.023Z,100009.72
2022-11-23T07:32:31.466Z,100007.13
2022-11-23T07:34:32.921Z,100011.47
2022-11-23T07:36:34.360Z,100014.06
2022-11-23T07:38:35.815Z,100018.44
2022-11-23T07:40:38.239Z,100019.25
2022-11-23T07:42:44.578Z,100021.03
2022-11-23T07:44:46.704Z,100021.91
2022-11-23T07:46:48.187Z,100028.06
2022-11-23T07:48:49.686Z,100023.66
2022-11-23T07:50:54.993Z,100028.84
2022-11-23T07:52:56.666Z,100032.28
2022-11-23T07:55:00.202Z,100031.34
2022-11-23T07:57:01.744Z,100035.69
2022-11-23T07:59:03.194Z,100022.59
2022-11-23T08:01:04.827Z,100026.06
2022-11-23T08:03:27.150Z,100029.59
2022-11-23T08:05:27.836Z,100033.94
2022-11-23T08:07:29.345Z,100035.66
2022-11-23T08:09:30.891Z,100036.53
2022-11-23T08:11:32.357Z,100041.78
2022-11-23T08:13:37.301Z,100041.78
2022-11-23T08:15:38.756Z,100043.53
2022-11-23T08:17:40.229Z,100039.16
2022-11-23T08:19:41.663Z,100043.50
2022-11-23T08:21:43.545Z,100044.31
2022-11-23T08:23:45.029Z,100041.72
2022-11-23T08:25:47.097Z,100044.31
2022-11-23T08:27:48.575Z,100046.03
2022-11-23T08:29:50.286Z,100043.38
2022-11-23T08:31:51.849Z,100044.22
2022-11-23T08:33:53.379Z,100047.66
2022-11-23T08:35:54.864Z,100041.53
2022-11-23T08:37:56.292Z,100045.88
2022-11-23T08:39:57.732Z,100041.44
2022-11-23T08:41:59.247Z,100051.91
2022-11-23T08:44:00.688Z,100052.72
2022-11-23T08:46:06.725Z,100047.41
2022-11-23T08:48:10.892Z,100057.88
2022-11-23T08:50:12.940Z,100059.56
2022-11-23T08:52:14.638Z,100063.94
2022-11-23T08:54:16.064Z,100059.50
2022-11-23T08:56:18.206Z,100057.75
2022-11-23T08:58:19.675Z,100062.09
2022-11-23T09:00:21.255Z,100060.38
2022-11-23T09:02:22.774Z,100065.63
2022-11-23T09:04:24.337Z,100061.19
2022-11-23T09:06:29.186Z,100064.63
2022-11-23T09:08:31.007Z,100061.13
2022-11-23T09:10:32.519Z,100071.63
2022-11-23T09:12:34.107Z,100061.97
2022-11-23T09:14:35.646Z,100074.19
2022-11-23T09:16:37.155Z,100072.44
2022-11-23T09:18:39.089Z,100068.91
2022-11-23T09:20:40.562Z,100064.47
2022-11-23T09:22:42.019Z,100072.22
2022-11-23T09:24:43.519Z,100067.00
2022-11-23T09:26:45.035Z,100072.16
2022-11-23T09:28:46.486Z,100069.50
2022-11-23T09:30:48.154Z,100067.59
2022-11-23T09:32:49.591Z,100079.75
2022-11-23T09:34:51.062Z,100081.38
2022-11-23T09:36:52.488Z,100082.16
2022-11-23T09:38:57.658Z,100084.66
2022-11-23T09:41:31.470Z,100088.91
2022-11-23T09:43:47.348Z,100080.03
2022-11-23T09:45:55.113Z,100087.81
2022-11-23T09:47:57.021Z,100079.84
2022-11-23T09:50:09.017Z,100087.53
2022-11-23T09:52:24.041Z,100089.22
2022-11-23T09:54:33.632Z,100079.44
2022-11-23T09:56:37.217Z,100077.63
2022-11-23T09:58:41.106Z,100078.34
2022-11-23T10:00:57.254Z,100079.97
2022-11-23T10:02:58.745Z,100075.47
2022-11-23T10:05:01.415Z,100074.56
2022-11-23T10:07:22.654Z,100079.72
2022-11-23T10:09:27.079Z,100082.25
2022-11-23T10:11:39.139Z,100086.63
2022-11-23T10:13:50.689Z,100083.91
2022-11-23T10:16:16.838Z,100091.66
2022-11-23T10:18:34.169Z,100084.47
2022-11-23T10:21:06.184Z,100079.97
2022-11-23T10:23:22.218Z,100081.66
2022-11-23T10:25:25.088Z,100085.19
2022-11-23T10:27:29.767Z,100079.06
2022-11-23T10:29:38.866Z,100086.06
2022-11-23T10:31:45.828Z,100080.75
2022-11-23T10:34:08.364Z,100087.69
2022-11-23T10:36:13.590Z,100085.84
2022-11-23T10:38:20.999Z,100083.19
2022-11-23T10:40:25.833Z,100082.22
2022-11-23T10:42:46.961Z,100086.44
2022-11-23T10:44:50.260Z,100086.31
2022-11-23T10:46:51.855Z,100085.25
2022-11-23T10:48:54.561Z,100085.19
2022-11-23T10:51:34.604Z,100078.91
2022-11-23T10:53:36.105Z,100083.28
2022-11-23T10:55:59.200Z,100076.13
2022-11-23T10:58:01.106Z,100079.38
2022-11-23T11:00:17.858Z,100077.59
2022-11-23T11:02:22.784Z,100075.25
2022-11-23T11:04:25.767Z,100076.09
2022-11-23T11:06:36.085Z,100074.19
2022-11-23T11:08:51.005Z,100075.53
2022-11-23T11:11:09.218Z,100076.50
2022-11-23T11:13:22.629Z,100076.47
2022-11-23T11:15:24.310Z,100069.94
2022-11-23T11:17:28.220Z,100076.50
2022-11-23T11:19:31.091Z,100069.75
2022-11-23T11:21:35.233Z,100070.16
2022-11-23T11:23:41.217Z,100070.50
2022-11-23T11:25:42.761Z,100070.78
2022-11-23T11:27:51.692Z,100065.66
2022-11-23T11:30:01.933Z,100064.84
2022-11-23T11:32:29.944Z,100064.03
2022-11-23T11:34:52.099Z,100070.34
2022-11-23T11:37:15.026Z,100067.66
2022-11-23T11:39:28.727Z,100064.94
2022-11-23T11:41:30.928Z,100060.66
2022-11-23T11:43:40.581Z,100050.13
2022-11-23T11:46:13.240Z,100064.94
2022-11-23T11:48:16.011Z,100060.53
2022-11-23T11:50:46.501Z,100063.00
2022-11-23T11:52:51.581Z,100055.78
2022-11-23T11:55:01.345Z,100059.09
2022-11-23T11:57:17.317Z,100057.25
2022-11-23T11:59:42.857Z,100054.56
2022-11-23T12:01:56.943Z,100049.19
2022-11-23T12:04:07.131Z,100049.19
2022-11-23T12:06:26.331Z,100058.75
2022-11-23T12:08:40.664Z,100053.41
2022-11-23T12:10:50.376Z,100059.38
2022-11-23T12:12:52.210Z,100046.03
2022-11-23T12:14:53.694Z,100045.00
2022-11-23T12:17:30.939Z,100050.16
2022-11-23T12:19:31.036Z,100049.28
2022-11-23T12:22:02.618Z,100051.13
2022-11-23T12:24:38.732Z,100049.28
2022-11-23T12:26:42.850Z,100053.59
2022-11-23T12:29:05.671Z,100049.16
2022-11-23T12:31:24.413Z,100049.16
2022-11-23T12:33:33.922Z,100042.06
2022-11-23T12:36:00.881Z,100048.91
2022-11-23T12:38:31.954Z,100048.84
2022-11-23T12:40:39.415Z,100047.94
2022-11-23T12:42:48.531Z,100049.69
2022-11-23T12:44:56.075Z,100050.56
2022-11-23T12:47:29.244Z,100047.75
2022-11-23T12:49:44.462Z,100049.41
2022-11-23T12:52:07.719Z,100038.72
2022-11-23T12:54:41.113Z,100045.59
2022-11-23T12:57:04.293Z,100042.88
2022-11-23T12:59:10.734Z,100038.53
2022-11-23T13:01:24.108Z,100040.28
2022-11-23T13:03:49.467Z,100037.69
2022-11-23T13:05:56.964Z,100039.53
2022-11-23T13:08:01.542Z,100042.22
2022-11-23T13:10:30.536Z,100034.38
2022-11-23T13:12:31.928Z,100030.03
2022-11-23T13:14:42.634Z,100030.88
2022-11-23T13:17:10.705Z,100031.75
2022-11-23T13:19:40.743Z,100023.16
2022-11-23T13:21:44.772Z,100024.06
2022-11-23T13:23:46.461Z,100023.22
2022-11-23T13:26:14.628Z,100018.78
2022-11-23T13:28:30.761Z,100015.25
2022-11-23T13:30:59.204Z,100014.38
2022-11-23T13:33:02.424Z,100009.09
2022-11-23T13:35:23.898Z,100011.69
2022-11-23T13:37:25.383Z,100009.91
2022-11-23T13:39:45.291Z,100009.84
2022-11-23T13:42:01.324Z,100007.22
2022-11-23T13:44:18.746Z,100000.16
2022-11-23T13:46:23.066Z,99998.44
2022-11-23T13:48:54.970Z,99996.66
2022-11-23T13:50:49.067Z,100002.72
2022-11-23T13:52:51.889Z,100002.72
2022-11-23T13:55:02.663Z,100004.44
2022-11-23T13:57:13.575Z,100005.38
2022-11-23T13:59:24.310Z,100004.44
2022-11-23T14:02:00.245Z,100001.88
2022-11-23T14:04:23.007Z,100005.38
2022-11-23T14:06:27.355Z,100004.50
2022-11-23T14:08:29.380Z,100007.09
2022-11-23T14:10:32.021Z,100003.59
2022-11-23T14:13:00.531Z,100001.88
2022-11-23T14:15:10.934Z,99994.13
2022-11-23T14:17:24.565Z,99997.75
2022-11-23T14:19:51.974Z,99995.25
2022-11-23T14:22:21.161Z,100005.13
2022-11-23T14:24:47.516Z,100006.19
2022-11-23T14:27:23.847Z,100009.00
2022-11-23T14:29:48.752Z,100014.44
2022-11-23T14:32:20.557Z,100018.25
2022-11-23T14:35:12.544Z,100025.47
2022-11-23T14:37:19.705Z,100031.81
2022-11-23T14:40:06.531Z,100027.53
2022-11-23T14:42:16.618Z,100030.41
2022-11-23T14:44:23.294Z,100036.72
2022-11-23T14:46:25.729Z,100033.34
2022-11-23T14:48:32.956Z,100034.31
2022-11-23T14:50:34.539Z,100030.97
2022-11-23T14:52:37.018Z,100027.59
2022-11-23T14:54:39.095Z,100033.78
2022-11-23T14:56:57.778Z,100033.91
2022-11-23T14:59:22.574Z,100031.59
2022-11-23T15:01:25.708Z,100040.41
2022-11-23T15:05:57.229Z,100036.38
2022-11-23T15:08:21.827Z,100046.13
2022-11-23T15:10:58.902Z,100042.69
2022-11-23T15:13:00.446Z,100038.44
2022-11-23T15:15:02.147Z,100042.97
2022-11-23T15:17:17.686Z,100038.66
2022-11-23T15:19:28.124Z,100037.97
2022-11-23T15:21:29.659Z,100039.84
2022-11-23T15:23:36.486Z,100037.38
2022-11-23T15:25:37.954Z,100034.03
2022-11-23T15:27:41.837Z,100033.16
2022-11-23T15:29:58.148Z,100032.41
2022-11-23T15:32:28.724Z,100017.63
2022-11-23T15:34:21.899Z,100009.06
2022-11-23T15:36:27.003Z,100015.34
2022-11-23T15:38:28.635Z,100012.84
2022-11-23T15:40:33.366Z,100006.94
2022-11-23T15:42:35.016Z,100007.97
2022-11-23T15:44:38.545Z,100009.88
2022-11-23T15:46:41.450Z,100002.13
2022-11-23T15:48:43.114Z,100012.81
2022-11-23T15:50:48.772Z,100013.84
2022-11-23T15:52:51.503Z,100023.69
2022-11-23T15:54:53.027Z,100028.25
2022-11-23T15:56:58.518Z,100031.78
2022-11-23T15:59:03.584Z,100027.47
2022-11-23T16:01:13.634Z,100020.50
2022-11-23T16:03:24.040Z,100020.50
2022-11-23T16:05:26.637Z,100028.44
2022-11-23T16:07:29.451Z,100025.03
2022-11-23T16:09:52.145Z,100024.22
2022-11-23T16:11:54.376Z,100028.63
2022-11-23T16:14:31.777Z,100028.78
2022-11-23T16:16:33.814Z,100028.88
2022-11-23T16:18:35.609Z,100029.78
2022-11-23T16:20:43.811Z,100026.38
2022-11-23T16:22:49.843Z,100029.09
2022-11-23T16:24:54.910Z,100030.09
2022-11-23T16:26:56.500Z,100032.00
2022-11-23T16:28:59.280Z,100047.06
2022-11-23T16:31:01.917Z,100051.56
2022-11-23T16:33:04.200Z,100047.41
2022-11-23T16:35:18.076Z,100047.44
2022-11-23T16:37:20.123Z,100055.41
2022-11-23T16:39:25.605Z,100054.59
2022-11-23T16:41:27.040Z,100070.50
2022-11-23T16:43:28.470Z,100072.34
2022-11-23T16:45:31.474Z,100076.78
2022-11-23T16:47:34.252Z,100087.28
2022-11-23T16:49:35.814Z,100090.81
2022-11-23T16:51:37.403Z,100095.16
2022-11-23T16:54:11.335Z,100090.81
2022-11-23T16:56:03.722Z,100099.69
2022-11-23T16:58:05.502Z,100104.16
2022-11-23T17:00:22.453Z,100106.81
2022-11-23T17:02:24.050Z,100108.59
2022-11-23T17:04:25.979Z,100107.81
2022-11-23T17:06:27.520Z,100108.69
2022-11-23T17:08:28.975Z,100116.66
2022-11-23T17:10:30.586Z,100116.75
2022-11-23T17:12:32.212Z,100122.91
2022-11-23T17:14:38.859Z,100121.22
2022-11-23T17:16:41.114Z,100126.56
2022-11-23T17:18:42.734Z,100127.47
2022-11-23T17:20:44.733Z,100126.69
2022-11-23T17:22:46.435Z,100124.16
2022-11-23T17:24:49.342Z,100133.84
2022-11-23T17:26:53.103Z,100136.56
2022-11-23T17:28:54.851Z,100139.31
2022-11-23T17:30:56.347Z,100147.28
2022-11-23T17:32:57.870Z,100139.53
2022-11-23T17:34:59.301Z,100145.75
2022-11-23T17:37:00.798Z,100137.94
2022-11-23T17:39:02.412Z,100140.69
2022-11-23T17:41:04.445Z,100137.31
2022-11-23T17:43:05.908Z,100137.41
2022-11-23T17:45:07.660Z,100140.09
2022-11-23T17:47:25.270Z,100145.44
2022-11-23T17:49:28.344Z,100148.13
2022-11-23T17:51:30.049Z,100150.81
2022-11-23T17:53:31.503Z,100157.00
2022-11-23T17:55:33.681Z,100159.69
2022-11-23T17:57:35.148Z,100159.75
2022-11-23T17:59:36.609Z,100158.97
2022-11-23T18:01:38.087Z,100159.00
2022-11-23T18:03:39.612Z,100168.72
2022-11-23T18:05:41.082Z,100164.38
2022-11-23T18:07:42.752Z,100161.78
2022-11-23T18:09:44.729Z,100165.31
2022-11-23T18:11:46.186Z,100161.88
2022-11-23T18:13:48.710Z,100165.38
2022-11-23T18:15:50.210Z,100171.56
2022-11-23T18:17:51.842Z,100165.44
2022-11-23T18:19:53.471Z,100166.34
2022-11-23T18:21:55.054Z,100162.03
2022-11-23T18:24:01.482Z,100167.31
2022-11-23T18:26:14.920Z,100175.19
2022-11-23T18:28:18.703Z,100175.31
2022-11-23T18:30:20.176Z,100175.34
2022-11-23T18:32:21.620Z,100180.63
2022-11-23T18:34:23.266Z,100179.81
2022-11-23T18:36:24.840Z,100178.13
2022-11-23T18:38:26.308Z,100183.38
2022-11-23T18:40:27.764Z,100181.66
2022-11-23T18:42:29.291Z,100188.69
2022-11-23T18:44:30.744Z,100188.72
2022-11-23T18:46:33.206Z,100187.84
2022-11-23T18:48:34.844Z,100188.75
2022-11-23T18:50:36.837Z,100193.19
2022-11-23T18:52:38.698Z,100191.47
2022-11-23T18:54:40.207Z,100190.59
2022-11-23T18:56:41.663Z,100205.44
2022-11-23T18:58:44.846Z,100207.16
2022-11-23T19:00:46.354Z,100208.00
2022-11-23T19:03:05.725Z,100208.81
2022-11-23T19:05:07.509Z,100205.31
2022-11-23T19:07:09.352Z,100213.13
2022-11-23T19:09:12.594Z,100210.50
2022-11-23T19:11:17.935Z,100212.19
2022-11-23T19:13:19.483Z,100207.78
2022-11-23T19:15:21.215Z,100209.47
2022-11-23T19:17:22.705Z,100212.94
2022-11-23T19:19:24.180Z,100204.16
2022-11-23T19:21:28.266Z,100207.59
2022-11-23T19:23:29.964Z,100210.19
2022-11-23T19:25:31.404Z,100216.22
2022-11-23T19:27:38.461Z,100214.44
2022-11-23T19:29:39.924Z,100217.03
2022-11-23T19:31:41.505Z,100206.47
2022-11-23T19:33:44.492Z,100215.09
2022-11-23T19:35:46.614Z,100214.16
2022-11-23T19:37:48.157Z,100207.13
2022-11-23T19:39:49.724Z,100216.69
2022-11-23T19:41:51.230Z,100220.13
2022-11-23T19:43:56.909Z,100222.72
2022-11-23T19:46:03.175Z,100217.44
2022-11-23T19:48:04.818Z,100219.16
2022-11-23T19:50:06.647Z,100218.25
2022-11-23T19:52:08.099Z,100221.69
2022-11-23T19:54:09.887Z,100220.78
2022-11-23T19:56:15.566Z,100225.94
2022-11-23T19:58:17.287Z,100231.19
2022-11-23T20:00:18.957Z,100229.44
2022-11-23T20:02:25.269Z,100222.44
2022-11-23T20:04:26.713Z,100232.88
2022-11-23T20:06:30.110Z,100235.50
2022-11-23T20:08:31.745Z,100231.16
2022-11-23T20:10:33.231Z,100237.22
2022-11-23T20:12:34.652Z,100238.97
2022-11-23T20:14:36.116Z,100243.31
2022-11-23T20:16:38.304Z,100243.31
2022-11-23T20:18:41.644Z,100247.66
2022-11-23T20:20:44.679Z,100240.66
2022-11-23T20:22:46.286Z,100243.28
2022-11-23T20:24:47.784Z,100246.72
2022-11-23T20:26:49.236Z,100249.31
2022-11-23T20:28:52.130Z,100258.06
2022-11-23T20:30:53.691Z,100252.81
2022-11-23T20:32:55.815Z,100257.19
2022-11-23T20:34:57.530Z,100256.28
2022-11-23T20:37:00.018Z,100258.06
2022-11-23T20:39:04.153Z,100262.41
2022-11-23T20:41:12.879Z,100262.41
2022-11-23T20:43:14.337Z,100260.69
2022-11-23T20:45:16.147Z,100267.66
2022-11-23T20:47:17.712Z,100268.50
2022-11-23T20:49:19.269Z,100272.88
2022-11-23T20:51:20.719Z,100275.50
2022-11-23T20:53:22.216Z,100272.88
2022-11-23T20:55:23.659Z,100268.50
2022-11-23T20:57:25.172Z,100272.00
2022-11-23T20:59:26.659Z,100273.69
2022-11-23T21:01:28.660Z,100279.78
2022-11-23T21:03:30.188Z,100285.84
2022-11-23T21:05:31.838Z,100290.22
2022-11-23T21:07:33.363Z,100292.88
2022-11-23T21:09:35.156Z,100292.94
2022-11-23T21:11:55.539Z,100296.47
2022-11-23T21:14:06.283Z,100296.50
2022-11-23T21:16:08.080Z,100299.19
2022-11-23T21:18:10.080Z,100307.94
2022-11-23T21:20:12.252Z,100307.97
2022-11-23T21:22:14.711Z,100301.88
2022-11-23T21:24:16.399Z,100301.88
2022-11-23T21:26:17.887Z,100303.66
2022-11-23T21:28:19.348Z,100305.38
2022-11-23T21:30:20.908Z,100302.78
2022-11-23T21:32:22.478Z,100308.06
2022-11-23T21:34:25.979Z,100308.06
2022-11-23T21:36:27.410Z,100308.94
2022-11-23T21:38:37.949Z,100308.97
2022-11-23T21:40:39.393Z,100302.00
2022-11-23T21:42:40.828Z,100310.72
2022-11-23T21:44:42.291Z,100309.81
2022-11-23T21:46:43.816Z,100318.59
2022-11-23T21:48:45.331Z,100315.09
2022-11-23T21:50:46.786Z,100309.88
2022-11-23T21:52:48.227Z,100312.53
2022-11-23T21:54:49.673Z,100315.16
2022-11-23T21:56:51.121Z,100315.16
2022-11-23T21:58:53.022Z,100317.78
2022-11-23T22:00:54.530Z,100317.81
2022-11-23T22:02:55.991Z,100316.91
2022-11-23T22:04:57.485Z,100321.31
2022-11-23T22:06:58.984Z,100317.81
2022-11-23T22:09:00.905Z,100323.88
2022-11-23T22:11:16.510Z,100324.72
2022-11-23T22:13:18.039Z,100323.88
2022-11-23T22:15:19.511Z,100326.50
2022-11-23T22:17:21.001Z,100328.25
2022-11-23T22:19:22.766Z,100327.34
2022-11-23T22:21:29.398Z,100323.81
2022-11-23T22:23:30.920Z,100332.53
2022-11-23T22:25:32.434Z,100332.53
2022-11-23T22:27:35.970Z,100330.75
2022-11-23T22:29:37.448Z,100333.34
2022-11-23T22:31:39.627Z,100335.09
2022-11-23T22:33:42.698Z,100335.09
2022-11-23T22:35:44.166Z,100331.59
2022-11-23T22:37:45.615Z,100328.94
2022-11-23T22:39:47.251Z,100332.44
2022-11-23T22:41:48.673Z,100329.78
2022-11-23T22:43:50.599Z,100328.00
2022-11-23T22:45:52.157Z,100334.16
2022-11-23T22:47:53.699Z,100341.19
2022-11-23T22:49:55.157Z,100342.09
2022-11-23T22:51:56.596Z,100338.66
2022-11-23T22:53:59.851Z,100336.88
2022-11-23T22:56:04.086Z,100343.81
2022-11-23T22:58:05.518Z,100346.50
2022-11-23T23:00:10.853Z,100349.19
2022-11-23T23:02:12.402Z,100359.72
2022-11-23T23:04:13.903Z,100362.38
2022-11-23T23:06:21.374Z,100367.63
2022-11-23T23:08:24.139Z,100372.00
2022-11-23T23:10:26.009Z,100379.91
2022-11-23T23:12:27.511Z,100378.19
2022-11-23T23:14:28.960Z,100383.44
2022-11-23T23:16:30.993Z,100374.75
2022-11-23T23:18:32.628Z,100385.22
2022-11-23T23:20:35.454Z,100379.97
2022-11-23T23:22:36.954Z,100394.88
2022-11-23T23:24:38.411Z,100387.03
2022-11-23T23:26:39.933Z,100387.94
2022-11-23T23:28:42.162Z,100396.63
2022-11-23T23:30:43.689Z,100402.78
2022-11-23T23:32:45.203Z,100401.94
2022-11-23T23:34:46.651Z,100405.41
2022-11-23T23:36:48.088Z,100407.16
2022-11-23T23:38:49.847Z,100409.75
2022-11-23T23:40:55.438Z,100407.97
2022-11-23T23:42:58.272Z,100404.44
2022-11-23T23:44:59.807Z,100412.31
2022-11-23T23:47:01.275Z,100414.06
2022-11-23T23:49:02.925Z,100409.75
2022-11-23T23:51:08.432Z,100409.78
2022-11-23T23:53:09.888Z,100400.19
2022-11-23T23:55:11.906Z,100398.44
2022-11-23T23:57:13.339Z,100401.97
2022-11-23T23:59:14.867Z,100403.75
